Terminal Aerodrome Forecast
Issued by NWS Wilmington, OH

Current Version | Previous Version | Graphics & Text | Print | Product List | Glossary On
Versions: 1 2 3 4 5 6 7 8 9 10 11 12 13 14 15 16 17 18 19 20 21
762
FTUS41 KILN 201328 AAA
TAFDAY
TAF AMD
KDAY 201328Z 2013/2112 20010KT 6SM BR BKN005 OVC035
     FM201800 22010KT P6SM OVC012
     FM202100 23010KT P6SM BKN035
     FM210400 16005KT P6SM BKN008=

USA.gov is the U.S. government's official web portal to all federal, state and local government web resources and services.